createdAt,value
2018-12-14T00:02:12.800Z,94030.58
2018-12-14T00:04:40.431Z,94022.50
2018-12-14T00:07:08.062Z,94021.23
2018-12-14T00:09:35.735Z,94017.78
2018-12-14T00:12:03.341Z,94020.06
2018-12-14T00:14:31.042Z,94019.38
2018-12-14T00:16:58.623Z,94015.74
2018-12-14T00:19:26.294Z,94016.86
2018-12-14T00:21:53.894Z,94024.94
2018-12-14T00:24:21.464Z,94026.91
2018-12-14T00:26:49.097Z,94024.78
2018-12-14T00:29:16.763Z,94025.58
2018-12-14T00:31:44.389Z,94021.34
2018-12-14T00:34:12.008Z,94031.57
2018-12-14T00:36:39.662Z,94028.39
2018-12-14T00:39:07.281Z,94030.24
2018-12-14T00:41:34.965Z,94033.55
2018-12-14T00:44:02.575Z,94031.11
2018-12-14T00:46:30.245Z,94032.37
2018-12-14T00:48:57.838Z,94037.44
2018-12-14T00:51:25.469Z,94029.66
2018-12-14T00:53:53.106Z,94026.32
2018-12-14T00:56:20.739Z,94030.06
2018-12-14T00:58:48.378Z,94036.84
2018-12-14T01:01:16.024Z,94035.83
2018-12-14T01:03:43.626Z,94034.05
2018-12-14T01:06:11.286Z,94044.17
2018-12-14T01:08:38.865Z,94036.08
2018-12-14T01:11:06.506Z,94037.02
2018-12-14T01:13:34.151Z,94047.61
2018-12-14T01:16:01.788Z,94042.52
2018-12-14T01:18:29.399Z,94040.95
2018-12-14T01:20:57.073Z,94042.77
2018-12-14T01:23:24.761Z,94046.34
2018-12-14T01:25:52.345Z,94046.12
2018-12-14T01:28:20.065Z,94039.11
2018-12-14T01:30:47.651Z,94045.98
2018-12-14T01:33:15.314Z,94046.16
2018-12-14T01:35:42.882Z,94045.00
2018-12-14T01:38:10.464Z,94046.82
2018-12-14T01:40:38.127Z,94047.06
2018-12-14T01:43:05.748Z,94040.84
2018-12-14T01:45:33.417Z,94039.58
2018-12-14T01:48:01.063Z,94041.42
2018-12-14T01:50:28.707Z,94043.27
2018-12-14T01:52:56.326Z,94044.89
2018-12-14T01:55:24.193Z,94038.23
2018-12-14T01:57:52.035Z,94040.06
2018-12-14T02:00:19.719Z,94045.60
2018-12-14T02:02:47.570Z,94039.12
2018-12-14T02:05:15.142Z,94040.77
2018-12-14T02:07:42.719Z,94033.95
2018-12-14T02:10:10.472Z,94035.56
2018-12-14T02:12:38.058Z,94042.95
2018-12-14T02:15:05.729Z,94046.34
2018-12-14T02:17:33.372Z,94047.58
2018-12-14T02:20:00.946Z,94051.72
2018-12-14T02:22:28.667Z,94047.16
2018-12-14T02:24:56.361Z,94048.41
2018-12-14T02:27:23.942Z,94052.63
2018-12-14T02:29:51.582Z,94044.72
2018-12-14T02:32:19.183Z,94042.99
2018-12-14T02:34:46.843Z,94044.83
2018-12-14T02:37:14.427Z,94042.30
2018-12-14T02:39:41.997Z,94045.77
2018-12-14T02:42:09.650Z,94043.59
2018-12-14T02:44:37.278Z,94047.27
2018-12-14T02:47:04.893Z,94046.34
2018-12-14T02:49:32.539Z,94048.55
2018-12-14T02:52:00.132Z,94041.77
2018-12-14T02:54:27.785Z,94035.69
2018-12-14T02:56:55.422Z,94038.21
2018-12-14T02:59:22.991Z,94045.56
2018-12-14T03:01:50.653Z,94035.33
2018-12-14T03:04:18.311Z,94029.71
2018-12-14T03:06:45.931Z,94029.62
2018-12-14T03:09:13.528Z,94038.23
2018-12-14T03:11:41.185Z,94040.17
2018-12-14T03:14:08.817Z,94037.19
2018-12-14T03:16:36.520Z,94036.27
2018-12-14T03:19:04.304Z,94037.42
2018-12-14T03:21:31.941Z,94044.54
2018-12-14T03:23:59.563Z,94044.42
2018-12-14T03:26:27.278Z,94048.64
2018-12-14T03:28:54.951Z,94047.27
2018-12-14T03:31:22.619Z,94047.84
2018-12-14T03:33:50.234Z,94044.05
2018-12-14T03:36:17.856Z,94040.73
2018-12-14T03:38:45.523Z,94033.39
2018-12-14T03:41:13.889Z,94033.86
2018-12-14T03:43:41.539Z,94041.33
2018-12-14T03:46:09.142Z,94043.83
2018-12-14T03:48:36.875Z,94046.11
2018-12-14T03:51:04.496Z,94045.44
2018-12-14T03:53:32.897Z,94052.09
2018-12-14T03:56:00.680Z,94038.67
2018-12-14T03:58:28.318Z,94048.67
2018-12-14T04:00:55.985Z,94052.11
2018-12-14T04:03:23.988Z,94044.62
2018-12-14T04:05:51.825Z,94047.63
2018-12-14T04:08:19.414Z,94051.52
2018-12-14T04:10:47.074Z,94047.59
2018-12-14T04:13:14.689Z,94048.52
2018-12-14T04:15:42.356Z,94046.59
2018-12-14T04:18:10.484Z,94044.02
2018-12-14T04:20:38.094Z,94037.18
2018-12-14T04:23:05.715Z,94045.31
2018-12-14T04:25:33.347Z,94052.17
2018-12-14T04:28:01.007Z,94050.35
2018-12-14T04:30:28.617Z,94048.73
2018-12-14T04:32:56.912Z,94050.58
2018-12-14T04:35:24.704Z,94051.52
2018-12-14T04:37:52.323Z,94049.92
2018-12-14T04:40:20.013Z,94058.27
2018-12-14T04:42:48.916Z,94057.13
2018-12-14T04:45:17.022Z,94067.23
2018-12-14T04:47:44.669Z,94071.81
2018-12-14T04:50:13.869Z,94064.93
2018-12-14T04:52:41.823Z,94066.42
2018-12-14T04:55:09.412Z,94070.53
2018-12-14T04:57:37.067Z,94071.34
2018-12-14T05:00:07.726Z,94066.88
2018-12-14T05:02:35.439Z,94067.24
2018-12-14T05:05:03.197Z,94068.37
2018-12-14T05:07:30.861Z,94066.89
2018-12-14T05:09:58.512Z,94070.09
2018-12-14T05:12:26.184Z,94072.13
2018-12-14T05:14:54.117Z,94063.21
2018-12-14T05:17:21.759Z,94068.03
2018-12-14T05:19:49.339Z,94071.94
2018-12-14T05:22:16.952Z,94073.31
2018-12-14T05:24:44.674Z,94070.20
2018-12-14T05:27:12.768Z,94073.78
2018-12-14T05:29:40.693Z,94080.77
2018-12-14T05:32:08.435Z,94084.54
2018-12-14T05:34:36.131Z,94082.93
2018-12-14T05:37:03.745Z,94083.39
2018-12-14T05:39:31.319Z,94083.61
2018-12-14T05:41:58.969Z,94090.08
2018-12-14T05:44:26.571Z,94087.77
2018-12-14T05:46:54.260Z,94091.16
2018-12-14T05:49:22.205Z,94089.20
2018-12-14T05:51:49.913Z,94093.27
2018-12-14T05:54:20.398Z,94104.26
2018-12-14T05:56:48.249Z,94102.08
2018-12-14T05:59:18.435Z,94096.63
2018-12-14T06:01:46.177Z,94102.44
2018-12-14T06:04:14.522Z,94096.17
2018-12-14T06:06:42.369Z,94100.09
2018-12-14T06:09:10.596Z,94097.53
2018-12-14T06:11:38.240Z,94103.97
2018-12-14T06:14:05.970Z,94106.00
2018-12-14T06:16:33.556Z,94108.87
2018-12-14T06:19:01.433Z,94110.97
2018-12-14T06:21:29.753Z,94115.09
2018-12-14T06:23:58.372Z,94115.91
2018-12-14T06:26:26.028Z,94120.42
2018-12-14T06:28:59.091Z,94122.51
2018-12-14T06:31:26.674Z,94121.35
2018-12-14T06:33:54.321Z,94119.72
2018-12-14T06:36:21.951Z,94129.12
2018-12-14T06:38:49.637Z,94126.47
2018-12-14T06:41:17.280Z,94128.78
2018-12-14T06:43:44.932Z,94126.53
2018-12-14T06:46:12.599Z,94127.84
2018-12-14T06:48:40.256Z,94136.35
2018-12-14T06:51:08.331Z,94140.28
2018-12-14T06:53:35.981Z,94140.93
2018-12-14T06:56:03.606Z,94143.25
2018-12-14T06:58:31.238Z,94141.68
2018-12-14T07:00:58.897Z,94143.99
2018-12-14T07:03:26.512Z,94141.33
2018-12-14T07:05:54.161Z,94139.14
2018-12-14T07:08:21.826Z,94148.02
2018-12-14T07:10:49.437Z,94148.93
2018-12-14T07:13:21.859Z,94145.93
2018-12-14T07:15:46.724Z,94149.03
2018-12-14T07:18:14.381Z,94145.60
2018-12-14T07:20:42.114Z,94146.66
2018-12-14T07:23:09.784Z,94152.47
2018-12-14T07:25:37.447Z,94148.22
2018-12-14T07:28:05.009Z,94144.41
2018-12-14T07:30:32.680Z,94157.27
2018-12-14T07:33:00.903Z,94150.27
2018-12-14T07:35:28.646Z,94153.02
2018-12-14T07:37:56.350Z,94162.21
2018-12-14T07:40:24.042Z,94160.80
2018-12-14T07:42:51.725Z,94156.75
2018-12-14T07:45:19.497Z,94157.77
2018-12-14T07:47:47.082Z,94154.13
2018-12-14T07:50:14.811Z,94157.16
2018-12-14T07:52:42.553Z,94160.41
2018-12-14T07:55:10.331Z,94162.06
2018-12-14T07:57:37.992Z,94164.94
2018-12-14T08:00:08.089Z,94160.63
2018-12-14T08:02:35.736Z,94165.09
2018-12-14T08:05:07.291Z,94169.56
2018-12-14T08:07:36.115Z,94174.81
2018-12-14T08:10:04.723Z,94172.78
2018-12-14T08:12:32.404Z,94183.56
2018-12-14T08:15:00.149Z,94181.59
2018-12-14T08:17:27.999Z,94182.86
2018-12-14T08:19:55.772Z,94183.78
2018-12-14T08:22:23.623Z,94180.78
2018-12-14T08:24:51.522Z,94183.45
2018-12-14T08:27:19.524Z,94187.87
2018-12-14T08:29:48.132Z,94183.81
2018-12-14T08:32:15.862Z,94188.62
2018-12-14T08:34:50.787Z,94185.90
2018-12-14T08:37:15.841Z,94186.05
2018-12-14T08:39:43.588Z,94190.59
2018-12-14T08:42:11.216Z,94194.10
2018-12-14T08:44:39.236Z,94197.09
2018-12-14T08:47:07.407Z,94204.11
2018-12-14T08:49:35.042Z,94209.67
2018-12-14T08:52:02.748Z,94204.81
2018-12-14T08:54:30.414Z,94210.48
2018-12-14T08:56:58.262Z,94213.91
2018-12-14T08:59:25.917Z,94212.72
2018-12-14T09:01:53.697Z,94223.55
2018-12-14T09:04:21.482Z,94227.25
2018-12-14T09:06:49.292Z,94223.56
2018-12-14T09:09:20.701Z,94221.55
2018-12-14T09:11:49.555Z,94218.50
2018-12-14T09:14:17.599Z,94223.67
2018-12-14T09:16:45.567Z,94229.67
2018-12-14T09:19:13.210Z,94227.59
2018-12-14T09:21:40.877Z,94229.89
2018-12-14T09:24:10.137Z,94230.56
2018-12-14T09:26:37.784Z,94237.91
2018-12-14T09:29:05.577Z,94227.42
2018-12-14T09:31:33.171Z,94223.89
2018-12-14T09:34:00.811Z,94222.91
2018-12-14T09:36:28.433Z,94223.08
2018-12-14T09:38:56.060Z,94231.11
2018-12-14T09:41:23.770Z,94224.56
2018-12-14T09:43:54.317Z,94221.88
2018-12-14T09:46:21.084Z,94216.52
2018-12-14T09:48:48.678Z,94210.64
2018-12-14T09:51:16.357Z,94215.43
2018-12-14T09:53:44.036Z,94216.34
2018-12-14T09:56:12.096Z,94214.17
2018-12-14T09:58:39.959Z,94209.22
2018-12-14T10:01:08.209Z,94212.14
2018-12-14T10:03:36.012Z,94204.72
2018-12-14T10:06:03.967Z,94199.57
2018-12-14T10:08:31.873Z,94206.59
2018-12-14T10:11:00.117Z,94201.17
2018-12-14T10:13:27.907Z,94204.89
2018-12-14T10:15:56.103Z,94203.95
2018-12-14T10:18:24.572Z,94203.69
2018-12-14T10:20:53.130Z,94199.45
2018-12-14T10:23:20.984Z,94200.91
2018-12-14T10:25:49.390Z,94191.34
2018-12-14T10:28:17.433Z,94190.61
2018-12-14T10:30:45.508Z,94187.64
2018-12-14T10:33:13.065Z,94191.92
2018-12-14T10:35:41.035Z,94196.89
2018-12-14T10:38:08.771Z,94187.28
2018-12-14T10:40:36.480Z,94192.41
2018-12-14T10:43:05.209Z,94187.00
2018-12-14T10:45:32.824Z,94180.30
2018-12-14T10:48:00.819Z,94180.05
2018-12-14T10:50:35.561Z,94181.88
2018-12-14T10:52:58.049Z,94181.16
2018-12-14T10:55:26.845Z,94177.28
2018-12-14T10:57:54.925Z,94182.52
2018-12-14T11:00:27.917Z,94179.64
2018-12-14T11:02:55.682Z,94175.84
2018-12-14T11:05:23.256Z,94172.36
2018-12-14T11:07:51.134Z,94168.52
2018-12-14T11:10:18.726Z,94161.83
2018-12-14T11:12:46.415Z,94165.33
2018-12-14T11:15:13.983Z,94168.06
2018-12-14T11:17:41.566Z,94168.88
2018-12-14T11:20:09.259Z,94162.31
2018-12-14T11:22:36.999Z,94156.26
2018-12-14T11:25:05.850Z,94156.91
2018-12-14T11:27:33.721Z,94165.41
2018-12-14T11:30:01.385Z,94161.80
2018-12-14T11:32:29.149Z,94157.13
2018-12-14T11:34:57.018Z,94163.42
2018-12-14T11:37:24.910Z,94165.48
2018-12-14T11:39:52.803Z,94159.84
2018-12-14T11:42:21.187Z,94161.48
2018-12-14T11:44:49.850Z,94160.45
2018-12-14T11:47:18.247Z,94162.46
2018-12-14T11:49:46.348Z,94159.70
2018-12-14T11:52:14.360Z,94159.53
2018-12-14T11:54:41.942Z,94156.50
2018-12-14T11:57:09.636Z,94155.96
2018-12-14T11:59:37.257Z,94152.70
2018-12-14T12:02:04.930Z,94147.48
2018-12-14T12:04:33.039Z,94151.23
2018-12-14T12:07:00.852Z,94144.10
2018-12-14T12:09:28.557Z,94147.36
2018-12-14T12:11:56.723Z,94135.42
2018-12-14T12:14:27.099Z,94139.23
2018-12-14T12:16:54.587Z,94139.10
2018-12-14T12:19:22.399Z,94138.45
2018-12-14T12:21:50.475Z,94138.13
2018-12-14T12:24:18.274Z,94134.94
2018-12-14T12:26:47.172Z,94138.19
2018-12-14T12:29:14.991Z,94129.38
2018-12-14T12:31:43.562Z,94134.08
2018-12-14T12:34:11.286Z,94135.17
2018-12-14T12:36:38.922Z,94126.79
2018-12-14T12:39:06.839Z,94131.91
2018-12-14T12:41:34.415Z,94128.38
2018-12-14T12:44:02.302Z,94131.41
2018-12-14T12:46:29.927Z,94126.97
2018-12-14T12:48:58.670Z,94119.81
2018-12-14T12:51:26.689Z,94120.48
2018-12-14T12:53:54.303Z,94115.92
2018-12-14T12:56:22.274Z,94119.56
2018-12-14T12:58:50.233Z,94121.17
2018-12-14T13:01:18.124Z,94119.75
2018-12-14T13:03:46.648Z,94125.22
2018-12-14T13:06:15.164Z,94121.34
2018-12-14T13:08:42.883Z,94114.39
2018-12-14T13:11:12.203Z,94114.78
2018-12-14T13:13:39.886Z,94117.66
2018-12-14T13:16:07.565Z,94113.28
2018-12-14T13:18:46.729Z,94111.78
2018-12-14T13:21:15.557Z,94115.03
2018-12-14T13:23:43.265Z,94125.72
2018-12-14T13:26:12.614Z,94119.86
2018-12-14T13:28:40.458Z,94125.50
2018-12-14T13:31:08.107Z,94127.58
2018-12-14T13:33:36.506Z,94134.20
2018-12-14T13:36:04.202Z,94129.98
2018-12-14T13:38:31.842Z,94127.39
2018-12-14T13:40:59.520Z,94132.16
2018-12-14T13:43:29.282Z,94123.42
2018-12-14T13:45:57.025Z,94122.06
2018-12-14T13:48:24.660Z,94126.88
2018-12-14T13:50:52.482Z,94128.05
2018-12-14T13:53:21.171Z,94130.53
2018-12-14T13:55:48.860Z,94133.48
2018-12-14T13:58:16.516Z,94134.55
2018-12-14T14:00:44.177Z,94136.53
2018-12-14T14:03:11.979Z,94132.50
2018-12-14T14:05:39.651Z,94131.28
2018-12-14T14:08:07.383Z,94138.94
2018-12-14T14:10:35.014Z,94141.31
2018-12-14T14:13:02.683Z,94143.86
2018-12-14T14:15:30.422Z,94146.61
2018-12-14T14:17:58.838Z,94148.26
2018-12-14T14:20:26.472Z,94149.77
2018-12-14T14:22:54.115Z,94150.39
2018-12-14T14:25:21.838Z,94148.48
2018-12-14T14:27:49.472Z,94149.14
2018-12-14T14:30:17.136Z,94152.64
2018-12-14T14:32:44.788Z,94153.25
2018-12-14T14:35:12.784Z,94151.30
2018-12-14T14:37:40.447Z,94155.20
2018-12-14T14:40:08.063Z,94155.19
2018-12-14T14:42:35.760Z,94159.05
2018-12-14T14:45:04.922Z,94161.27
2018-12-14T14:47:32.676Z,94170.39
2018-12-14T14:50:00.440Z,94169.75
2018-12-14T14:52:28.878Z,94171.83
2018-12-14T14:54:57.501Z,94175.12
2018-12-14T14:57:25.171Z,94168.73
2018-12-14T14:59:53.585Z,94178.19
2018-12-14T15:02:21.221Z,94180.66
2018-12-14T15:04:49.373Z,94187.56
2018-12-14T15:07:17.086Z,94193.67
2018-12-14T15:09:47.242Z,94180.98
2018-12-14T15:12:15.026Z,94181.83
2018-12-14T15:14:44.096Z,94191.09
2018-12-14T15:17:12.556Z,94189.34
2018-12-14T15:19:40.383Z,94194.31
2018-12-14T15:22:08.663Z,94191.52
2018-12-14T15:24:36.947Z,94197.09
2018-12-14T15:27:04.708Z,94200.55
2018-12-14T15:29:32.693Z,94204.33
2018-12-14T15:32:01.171Z,94205.08
2018-12-14T15:34:28.825Z,94206.73
2018-12-14T15:36:57.490Z,94208.37
2018-12-14T15:39:25.777Z,94208.38
2018-12-14T15:41:53.594Z,94207.54
2018-12-14T15:44:21.412Z,94210.50
2018-12-14T15:46:49.084Z,94211.12
2018-12-14T15:49:16.851Z,94215.47
2018-12-14T15:51:44.857Z,94217.48
2018-12-14T15:54:14.068Z,94212.20
2018-12-14T15:56:41.778Z,94217.35
2018-12-14T15:59:09.564Z,94211.27
2018-12-14T16:01:37.232Z,94208.84
2018-12-14T16:04:04.935Z,94208.89
2018-12-14T16:06:32.534Z,94216.16
2018-12-14T16:09:01.184Z,94217.00
2018-12-14T16:11:28.851Z,94220.26
2018-12-14T16:13:56.668Z,94219.78
2018-12-14T16:16:24.468Z,94220.81
2018-12-14T16:18:52.257Z,94221.83
2018-12-14T16:21:20.017Z,94228.53
2018-12-14T16:23:47.649Z,94225.91
2018-12-14T16:26:15.466Z,94222.45
2018-12-14T16:28:43.815Z,94229.89
2018-12-14T16:31:11.540Z,94226.30
2018-12-14T16:33:39.273Z,94227.62
2018-12-14T16:36:06.983Z,94227.98
2018-12-14T16:38:34.668Z,94229.83
2018-12-14T16:41:02.328Z,94233.70
2018-12-14T16:43:29.914Z,94237.59
2018-12-14T16:45:57.608Z,94238.80
2018-12-14T16:48:25.271Z,94236.19
2018-12-14T16:50:53.088Z,94240.84
2018-12-14T16:53:22.265Z,94232.84
2018-12-14T16:55:49.954Z,94242.47
2018-12-14T16:58:18.511Z,94241.30
2018-12-14T17:00:46.141Z,94248.05
2018-12-14T17:03:15.193Z,94246.50
2018-12-14T17:05:42.877Z,94247.23
2018-12-14T17:08:10.906Z,94251.33
2018-12-14T17:10:38.617Z,94253.73
2018-12-14T17:13:06.320Z,94258.55
2018-12-14T17:15:33.941Z,94263.12
2018-12-14T17:18:01.642Z,94266.90
2018-12-14T17:20:29.389Z,94266.90
2018-12-14T17:22:57.149Z,94265.49
2018-12-14T17:25:25.965Z,94272.92
2018-12-14T17:27:54.785Z,94266.90
2018-12-14T17:30:22.542Z,94275.56
2018-12-14T17:32:50.261Z,94268.60
2018-12-14T17:35:18.535Z,94270.88
2018-12-14T17:37:46.213Z,94270.70
2018-12-14T17:40:14.004Z,94269.77
2018-12-14T17:42:41.656Z,94269.14
2018-12-14T17:45:09.454Z,94271.48
2018-12-14T17:47:38.555Z,94270.85
2018-12-14T17:50:08.231Z,94268.84
2018-12-14T17:52:35.927Z,94272.52
2018-12-14T17:55:03.671Z,94281.45
2018-12-14T17:57:31.692Z,94285.44
2018-12-14T17:59:59.721Z,94284.50
2018-12-14T18:02:27.595Z,94289.21
2018-12-14T18:04:56.370Z,94289.55
2018-12-14T18:07:23.979Z,94297.91
2018-12-14T18:09:55.981Z,94297.70
2018-12-14T18:12:25.343Z,94299.31
2018-12-14T18:14:57.006Z,94295.56
2018-12-14T18:17:26.422Z,94295.36
2018-12-14T18:19:56.779Z,94301.91
2018-12-14T18:22:27.735Z,94300.57
2018-12-14T18:27:33.579Z,94308.81
2018-12-14T18:30:01.592Z,94312.20
2018-12-14T18:32:29.309Z,94313.63
2018-12-14T18:34:57.073Z,94312.88
2018-12-14T18:37:24.874Z,94319.95
2018-12-14T18:39:52.570Z,94318.96
2018-12-14T18:42:20.240Z,94317.77
2018-12-14T18:44:48.102Z,94316.68
2018-12-14T18:47:15.830Z,94320.23
2018-12-14T18:49:44.568Z,94326.77
2018-12-14T18:52:12.264Z,94328.84
2018-12-14T18:54:39.986Z,94327.09
2018-12-14T18:57:07.642Z,94337.34
2018-12-14T18:59:35.343Z,94334.46
2018-12-14T19:02:02.970Z,94341.06
2018-12-14T19:04:30.582Z,94343.73
2018-12-14T19:06:58.531Z,94337.64
2018-12-14T19:09:26.442Z,94338.31
2018-12-14T19:11:54.145Z,94331.59
2018-12-14T19:14:21.893Z,94343.86
2018-12-14T19:16:49.579Z,94346.14
2018-12-14T19:19:17.367Z,94351.48
2018-12-14T19:21:44.971Z,94354.36
2018-12-14T19:24:12.607Z,94357.06
2018-12-14T19:26:40.280Z,94352.61
2018-12-14T19:29:08.065Z,94360.55
2018-12-14T19:31:35.726Z,94361.48
2018-12-14T19:34:03.385Z,94369.09
2018-12-14T19:36:31.065Z,94360.84
2018-12-14T19:38:59.101Z,94369.49
2018-12-14T19:41:26.776Z,94374.27
2018-12-14T19:43:54.358Z,94386.11
2018-12-14T19:46:22.095Z,94385.37
2018-12-14T19:48:49.694Z,94389.80
2018-12-14T19:51:17.392Z,94398.23
2018-12-14T19:53:45.022Z,94399.41
2018-12-14T19:56:12.894Z,94399.25
2018-12-14T19:58:40.541Z,94399.48
2018-12-14T20:01:08.132Z,94397.50
2018-12-14T20:03:35.848Z,94400.89
2018-12-14T20:06:03.719Z,94399.83
2018-12-14T20:08:31.398Z,94399.48
2018-12-14T20:10:59.083Z,94404.59
2018-12-14T20:13:26.850Z,94408.23
2018-12-14T20:15:57.427Z,94403.23
2018-12-14T20:18:24.213Z,94402.88
2018-12-14T20:20:51.813Z,94399.78
2018-12-14T20:23:19.422Z,94403.50
2018-12-14T20:25:47.218Z,94401.38
2018-12-14T20:28:14.815Z,94402.26
2018-12-14T20:30:42.498Z,94407.80
2018-12-14T20:33:10.529Z,94409.40
2018-12-14T20:35:38.149Z,94403.98
2018-12-14T20:38:06.249Z,94404.11
2018-12-14T20:40:33.932Z,94404.45
2018-12-14T20:43:01.793Z,94403.98
2018-12-14T20:45:30.064Z,94404.34
2018-12-14T20:47:57.833Z,94401.51
2018-12-14T20:50:25.699Z,94405.54
2018-12-14T20:52:53.313Z,94399.13
2018-12-14T20:55:21.016Z,94403.05
2018-12-14T20:57:48.596Z,94407.77
2018-12-14T21:00:16.333Z,94407.07
2018-12-14T21:02:44.121Z,94414.21
2018-12-14T21:05:11.783Z,94420.31
2018-12-14T21:07:39.435Z,94417.43
2018-12-14T21:10:07.296Z,94420.66
2018-12-14T21:12:34.889Z,94426.95
2018-12-14T21:15:02.614Z,94426.17
2018-12-14T21:17:30.278Z,94426.52
2018-12-14T21:19:58.012Z,94426.64
2018-12-14T21:22:25.642Z,94423.03
2018-12-14T21:24:53.913Z,94427.29
2018-12-14T21:27:21.585Z,94435.27
2018-12-14T21:29:50.785Z,94435.62
2018-12-14T21:32:18.504Z,94436.73
2018-12-14T21:34:46.277Z,94443.75
2018-12-14T21:37:13.940Z,94443.18
2018-12-14T21:39:41.596Z,94444.33
2018-12-14T21:42:10.010Z,94440.38
2018-12-14T21:44:37.617Z,94444.75
2018-12-14T21:47:05.331Z,94451.93
2018-12-14T21:49:33.287Z,94455.68
2018-12-14T21:52:01.071Z,94461.06
2018-12-14T21:54:29.631Z,94457.82
2018-12-14T21:56:57.389Z,94461.27
2018-12-14T21:59:25.066Z,94461.39
2018-12-14T22:01:52.771Z,94464.51
2018-12-14T22:04:21.520Z,94463.17
2018-12-14T22:06:49.291Z,94460.37
2018-12-14T22:09:16.906Z,94459.90
2018-12-14T22:11:44.577Z,94455.62
2018-12-14T22:14:12.334Z,94453.32
2018-12-14T22:16:39.929Z,94451.33
2018-12-14T22:19:07.630Z,94457.77
2018-12-14T22:21:35.246Z,94455.01
2018-12-14T22:24:02.951Z,94455.93
2018-12-14T22:26:30.672Z,94458.58
2018-12-14T22:28:58.323Z,94453.16
2018-12-14T22:31:25.998Z,94451.20
2018-12-14T22:33:53.588Z,94459.43
2018-12-14T22:36:21.233Z,94449.25
2018-12-14T22:38:49.187Z,94455.58
2018-12-14T22:41:16.850Z,94454.46
2018-12-14T22:43:44.472Z,94452.23
2018-12-14T22:46:12.159Z,94451.04
2018-12-14T22:48:39.750Z,94446.88
2018-12-14T22:51:07.474Z,94439.84
2018-12-14T22:53:35.116Z,94448.16
2018-12-14T22:56:02.958Z,94448.03
2018-12-14T22:58:30.648Z,94447.33
2018-12-14T23:00:58.376Z,94447.39
2018-12-14T23:03:26.076Z,94440.58
2018-12-14T23:05:53.722Z,94435.08
2018-12-14T23:08:21.297Z,94437.61
2018-12-14T23:10:48.925Z,94440.95
2018-12-14T23:13:16.512Z,94443.27
2018-12-14T23:15:44.169Z,94444.13
2018-12-14T23:18:11.792Z,94443.55
2018-12-14T23:20:39.649Z,94435.46
2018-12-14T23:23:07.248Z,94437.73
2018-12-14T23:25:34.909Z,94435.26
2018-12-14T23:28:02.538Z,94436.17
2018-12-14T23:30:30.197Z,94437.73
2018-12-14T23:32:57.772Z,94438.23
2018-12-14T23:35:25.430Z,94436.52
2018-12-14T23:37:53.081Z,94438.24
2018-12-14T23:40:20.892Z,94440.83
2018-12-14T23:42:48.537Z,94439.27
2018-12-14T23:45:16.169Z,94439.63
2018-12-14T23:47:43.830Z,94445.05
2018-12-14T23:50:11.563Z,94435.94
2018-12-14T23:52:39.206Z,94435.87
2018-12-14T23:55:06.803Z,94431.95
2018-12-14T23:57:34.454Z,94438.12
